Helliar — 2EPP5 — position and weather

sailwx.info

Track history (hours):
 
Tides and Currents Weather Stations Pressure Air Temp Water Temp Dewpoint Dewpoint Depression Visibility Wind Speed Wind Dir Waves Ship Positions

Helliar

Last reported at 2014-Sep-30 20:33 UTC. Time now 2014-Oct-01 00:06 UTC.
Position N 58°53' W 002°35'.

Length 122 m; draft 5.2 m.

Type: Cargo ship. MMSI: 235087119.

Date/timePositionNaut miles runAvg speedWind from/ knotsBaromVisibWave heightAir tempDewpointWater temp
2014-Sep-30 20:33N 58°53' W 002°35'1110.8
2014-Sep-30 19:33N 59°00' W 002°50'5 4.3
2014-Sep-30 18:31N 58°60' W 002°58'0 0.0
2014-Sep-30 17:31N 58°60' W 002°58'0 0.0
2014-Sep-30 16:31N 58°60' W 002°58'0 0.0
2014-Sep-30 15:31N 58°60' W 002°58'0 0.0
2014-Sep-30 14:31N 58°60' W 002°58'0 0.0
2014-Sep-30 13:31N 58°60' W 002°58'3 3.0
2014-Sep-30 12:33N 59°01' W 002°53'1312.4
2014-Sep-30 11:33N 58°52' W 002°35'1515.0
2014-Sep-30 10:32N 58°38' W 002°25'4815.4
2014-Sep-30 07:25N 57°53' W 001°55'1315.3
2014-Sep-30 06:34N 57°40' W 001°47'1414.4
2014-Sep-30 05:34N 57°26' W 001°41'1414.0
2014-Sep-30 04:33N 57°14' W 001°54'8 1.2
2014-Sep-29 21:33N 57°22' W 001°48'1312.6
2014-Sep-29 20:33N 57°34' W 001°44'1312.9
2014-Sep-29 19:33N 57°47' W 001°50'7515.0
2014-Sep-29 14:33N 58°57' W 002°38'1110.6
2014-Sep-29 13:32N 58°60' W 002°58'0 0.0
2014-Sep-29 12:29N 58°60' W 002°58'0 0.0
2014-Sep-29 11:32N 58°60' W 002°58'0 0.0
2014-Sep-29 10:32N 58°60' W 002°58'0 0.0
2014-Sep-29 09:32N 58°60' W 002°58'0 0.0
2014-Sep-29 08:32N 58°60' W 002°58'0 0.0
2014-Sep-29 07:32N 58°60' W 002°58'0 0.0
2014-Sep-29 06:32N 58°60' W 002°58'0 0.0
2014-Sep-29 05:32N 58°60' W 002°58'0 0.0
2014-Sep-29 04:32N 58°60' W 002°58'0 0.0
2014-Sep-29 03:32N 58°60' W 002°58'0 0.0
2014-Sep-29 02:32N 58°60' W 002°58'0 0.0
2014-Sep-29 01:32N 58°60' W 002°58'0 0.0
2014-Sep-29 00:29N 58°60' W 002°58'0 0.0
2014-Sep-28 23:32N 58°60' W 002°58'2 2.0
2014-Sep-28 22:32N 59°01' W 002°56'1111.0
2014-Sep-28 21:33N 58°57' W 002°37'6913.5
2014-Sep-28 16:28N 57°52' W 001°54'1313.9
2014-Sep-28 15:33N 57°40' W 001°46'11 1.1
2014-Sep-28 05:33N 57°29' W 001°43'1414.5
2014-Sep-28 04:33N 57°43' W 001°38'89 3.6
2014-Sep-27 04:08N 59°08' W 002°27'914.9
2014-Sep-27 03:33N 59°00' W 002°35'1211.8
2014-Sep-27 02:31N 58°60' W 002°58'1 0.7
2014-Sep-27 01:33N 59°01' W 002°58'1211.6
2014-Sep-27 00:33N 58°59' W 002°35'1212.4
2014-Sep-26 23:33N 58°47' W 002°36'6012.1
2014-Sep-26 18:33N 57°48' W 002°08'1515.0
2014-Sep-26 17:34N 57°39' W 001°46'1615.9
2014-Sep-26 16:33N 57°23' W 001°45'18 2.9
2014-Sep-26 10:07N 57°09' W 002°05'0 0.0
2014-Sep-26 09:31N 57°09' W 002°05'0 0.0
2014-Sep-26 08:31N 57°09' W 002°05'0 0.0
2014-Sep-26 07:31N 57°09' W 002°05'1 0.6
2014-Sep-26 06:33N 57°08' W 002°04'9 9.4
2014-Sep-26 05:33N 57°16' W 001°53'1212.2
2014-Sep-26 04:34N 57°27' W 001°43'1313.3
2014-Sep-26 03:34N 57°40' W 001°41'1514.0
2014-Sep-26 02:31N 57°54' W 001°39'73 3.0
2014-Sep-25 02:33N 59°01' W 002°33'1312.6
2014-Sep-25 01:33N 59°00' W 002°58'1 0.6
2014-Sep-25 00:33N 58°60' W 002°58'1111.1
2014-Sep-24 23:32N 58°56' W 002°38'7214.4
2014-Sep-24 18:31N 57°48' W 001°51'1616.3
2014-Sep-24 17:34N 57°33' W 001°42'1615.7
2014-Sep-24 16:33N 57°18' W 001°49'3 0.2
2014-Sep-24 05:28N 57°16' W 001°52'910.5
2014-Sep-24 04:34N 57°24' W 001°44'1110.5
2014-Sep-24 03:33N 57°34' W 001°41'1111.0
2014-Sep-24 02:33N 57°45' W 001°47'6911.4
2014-Sep-23 20:29N 58°51' W 002°25'1112.1
2014-Sep-23 19:33N 58°59' W 002°41'9 8.6
2014-Sep-23 18:31N 58°60' W 002°58'0 0.0
2014-Sep-23 17:31N 58°60' W 002°58'0 0.0
2014-Sep-23 16:31N 58°60' W 002°58'0 0.0
2014-Sep-23 15:31N 58°60' W 002°58'0 0.0
2014-Sep-23 14:31N 58°60' W 002°58'1 0.6
2014-Sep-23 13:33N 59°01' W 002°58'1313.1
2014-Sep-23 12:33N 58°54' W 002°36'7214.4
2014-Sep-23 07:34N 57°46' W 001°50'1615.7
2014-Sep-23 06:34N 57°31' W 001°42'1616.1
2014-Sep-23 05:34N 57°16' W 001°53'1 0.2
2014-Sep-22 23:16N 57°15' W 001°54'1216.5
2014-Sep-22 22:34N 57°25' W 001°45'1616.4
2014-Sep-22 21:34N 57°42' W 001°47'7414.8
2014-Sep-22 16:34N 58°52' W 002°35'1312.8
2014-Sep-22 15:33N 59°01' W 002°52'3 3.1
2014-Sep-22 14:32N 58°60' W 002°58'0 0.0
2014-Sep-22 13:32N 58°60' W 002°58'0 0.0
2014-Sep-22 12:32N 58°60' W 002°58'0 0.0
2014-Sep-22 11:32N 58°60' W 002°58'0 0.0
2014-Sep-22 10:32N 58°60' W 002°58'0 0.0
2014-Sep-22 09:32N 58°60' W 002°58'0 0.0
2014-Sep-22 08:32N 58°60' W 002°58'0 0.0
2014-Sep-22 07:32N 58°60' W 002°58'0 0.0
2014-Sep-22 06:32N 58°60' W 002°58'0 0.0
2014-Sep-22 05:32N 58°60' W 002°58'0 0.0
2014-Sep-22 04:32N 58°60' W 002°58'0 0.0
2014-Sep-22 03:32N 58°60' W 002°58'0 0.0
2014-Sep-22 02:32N 58°60' W 002°58'0 0.0
2014-Sep-22 01:32N 58°60' W 002°58'0 0.0
2014-Sep-22 00:32N 58°60' W 002°58'0 0.0
2014-Sep-21 23:32N 58°60' W 002°58'2 1.6
2014-Sep-21 22:33N 59°01' W 002°57'1111.3
2014-Sep-21 21:33N 58°56' W 002°38'6913.6
2014-Sep-21 16:31N 57°51' W 001°53'1515.5
2014-Sep-21 15:34N 57°37' W 001°44'1515.2
2014-Sep-21 14:34N 57°22' W 001°47'8 0.8
2014-Sep-21 05:33N 57°16' W 001°53'1212.0
2014-Sep-21 04:33N 57°26' W 001°44'1312.7
2014-Sep-21 03:33N 57°39' W 001°39'1313.4
2014-Sep-21 02:34N 57°52' W 001°37'  
Track history (hours):
 
Tides and Currents Weather Stations Pressure Air Temp Water Temp Dewpoint Dewpoint Depression Visibility Wind Speed Wind Dir Waves Ship Positions

Helliar

Last reported at 2014-Sep-30 20:33 UTC. Time now 2014-Oct-01 00:06 UTC.
Position N 58°53' W 002°35'.

Length 122 m; draft 5.2 m.

Type: Cargo ship. MMSI: 235087119.

Date/timePositionNaut miles runAvg speedWind from/ knotsBaromVisibWave heightAir tempDewpointWater temp
2014-Sep-30 20:33N 58°53' W 002°35'1110.8
2014-Sep-30 19:33N 59°00' W 002°50'5 4.3
2014-Sep-30 18:31N 58°60' W 002°58'0 0.0
2014-Sep-30 17:31N 58°60' W 002°58'0 0.0
2014-Sep-30 16:31N 58°60' W 002°58'0 0.0
2014-Sep-30 15:31N 58°60' W 002°58'0 0.0
2014-Sep-30 14:31N 58°60' W 002°58'0 0.0
2014-Sep-30 13:31N 58°60' W 002°58'3 3.0
2014-Sep-30 12:33N 59°01' W 002°53'1312.4
2014-Sep-30 11:33N 58°52' W 002°35'1515.0
2014-Sep-30 10:32N 58°38' W 002°25'4815.4
2014-Sep-30 07:25N 57°53' W 001°55'1315.3
2014-Sep-30 06:34N 57°40' W 001°47'1414.4
2014-Sep-30 05:34N 57°26' W 001°41'1414.0
2014-Sep-30 04:33N 57°14' W 001°54'8 1.2
2014-Sep-29 21:33N 57°22' W 001°48'1312.6
2014-Sep-29 20:33N 57°34' W 001°44'1312.9
2014-Sep-29 19:33N 57°47' W 001°50'7515.0
2014-Sep-29 14:33N 58°57' W 002°38'1110.6
2014-Sep-29 13:32N 58°60' W 002°58'0 0.0
2014-Sep-29 12:29N 58°60' W 002°58'0 0.0
2014-Sep-29 11:32N 58°60' W 002°58'0 0.0
2014-Sep-29 10:32N 58°60' W 002°58'0 0.0
2014-Sep-29 09:32N 58°60' W 002°58'0 0.0
2014-Sep-29 08:32N 58°60' W 002°58'0 0.0
2014-Sep-29 07:32N 58°60' W 002°58'0 0.0
2014-Sep-29 06:32N 58°60' W 002°58'0 0.0
2014-Sep-29 05:32N 58°60' W 002°58'0 0.0
2014-Sep-29 04:32N 58°60' W 002°58'0 0.0
2014-Sep-29 03:32N 58°60' W 002°58'0 0.0
2014-Sep-29 02:32N 58°60' W 002°58'0 0.0
2014-Sep-29 01:32N 58°60' W 002°58'0 0.0
2014-Sep-29 00:29N 58°60' W 002°58'0 0.0
2014-Sep-28 23:32N 58°60' W 002°58'2 2.0
2014-Sep-28 22:32N 59°01' W 002°56'1111.0
2014-Sep-28 21:33N 58°57' W 002°37'6913.5
2014-Sep-28 16:28N 57°52' W 001°54'1313.9
2014-Sep-28 15:33N 57°40' W 001°46'11 1.1
2014-Sep-28 05:33N 57°29' W 001°43'1414.5
2014-Sep-28 04:33N 57°43' W 001°38'89 3.6
2014-Sep-27 04:08N 59°08' W 002°27'914.9
2014-Sep-27 03:33N 59°00' W 002°35'1211.8
2014-Sep-27 02:31N 58°60' W 002°58'1 0.7
2014-Sep-27 01:33N 59°01' W 002°58'1211.6
2014-Sep-27 00:33N 58°59' W 002°35'1212.4
2014-Sep-26 23:33N 58°47' W 002°36'6012.1
2014-Sep-26 18:33N 57°48' W 002°08'1515.0
2014-Sep-26 17:34N 57°39' W 001°46'1615.9
2014-Sep-26 16:33N 57°23' W 001°45'18 2.9
2014-Sep-26 10:07N 57°09' W 002°05'0 0.0
2014-Sep-26 09:31N 57°09' W 002°05'0 0.0
2014-Sep-26 08:31N 57°09' W 002°05'0 0.0
2014-Sep-26 07:31N 57°09' W 002°05'1 0.6
2014-Sep-26 06:33N 57°08' W 002°04'9 9.4
2014-Sep-26 05:33N 57°16' W 001°53'1212.2
2014-Sep-26 04:34N 57°27' W 001°43'1313.3
2014-Sep-26 03:34N 57°40' W 001°41'1514.0
2014-Sep-26 02:31N 57°54' W 001°39'73 3.0
2014-Sep-25 02:33N 59°01' W 002°33'1312.6
2014-Sep-25 01:33N 59°00' W 002°58'1 0.6
2014-Sep-25 00:33N 58°60' W 002°58'1111.1
2014-Sep-24 23:32N 58°56' W 002°38'7214.4
2014-Sep-24 18:31N 57°48' W 001°51'1616.3
2014-Sep-24 17:34N 57°33' W 001°42'1615.7
2014-Sep-24 16:33N 57°18' W 001°49'3 0.2
2014-Sep-24 05:28N 57°16' W 001°52'910.5
2014-Sep-24 04:34N 57°24' W 001°44'1110.5
2014-Sep-24 03:33N 57°34' W 001°41'1111.0
2014-Sep-24 02:33N 57°45' W 001°47'6911.4
2014-Sep-23 20:29N 58°51' W 002°25'1112.1
2014-Sep-23 19:33N 58°59' W 002°41'9 8.6
2014-Sep-23 18:31N 58°60' W 002°58'0 0.0
2014-Sep-23 17:31N 58°60' W 002°58'0 0.0
2014-Sep-23 16:31N 58°60' W 002°58'0 0.0
2014-Sep-23 15:31N 58°60' W 002°58'0 0.0
2014-Sep-23 14:31N 58°60' W 002°58'1 0.6
2014-Sep-23 13:33N 59°01' W 002°58'1313.1
2014-Sep-23 12:33N 58°54' W 002°36'7214.4
2014-Sep-23 07:34N 57°46' W 001°50'1615.7
2014-Sep-23 06:34N 57°31' W 001°42'1616.1
2014-Sep-23 05:34N 57°16' W 001°53'1 0.2
2014-Sep-22 23:16N 57°15' W 001°54'1216.5
2014-Sep-22 22:34N 57°25' W 001°45'1616.4
2014-Sep-22 21:34N 57°42' W 001°47'7414.8
2014-Sep-22 16:34N 58°52' W 002°35'1312.8
2014-Sep-22 15:33N 59°01' W 002°52'3 3.1
2014-Sep-22 14:32N 58°60' W 002°58'0 0.0
2014-Sep-22 13:32N 58°60' W 002°58'0 0.0
2014-Sep-22 12:32N 58°60' W 002°58'0 0.0
2014-Sep-22 11:32N 58°60' W 002°58'0 0.0
2014-Sep-22 10:32N 58°60' W 002°58'0 0.0
2014-Sep-22 09:32N 58°60' W 002°58'0 0.0
2014-Sep-22 08:32N 58°60' W 002°58'0 0.0
2014-Sep-22 07:32N 58°60' W 002°58'0 0.0
2014-Sep-22 06:32N 58°60' W 002°58'0 0.0
2014-Sep-22 05:32N 58°60' W 002°58'0 0.0
2014-Sep-22 04:32N 58°60' W 002°58'0 0.0
2014-Sep-22 03:32N 58°60' W 002°58'0 0.0
2014-Sep-22 02:32N 58°60' W 002°58'0 0.0
2014-Sep-22 01:32N 58°60' W 002°58'0 0.0
2014-Sep-22 00:32N 58°60' W 002°58'0 0.0
2014-Sep-21 23:32N 58°60' W 002°58'2 1.6
2014-Sep-21 22:33N 59°01' W 002°57'1111.3
2014-Sep-21 21:33N 58°56' W 002°38'6913.6
2014-Sep-21 16:31N 57°51' W 001°53'1515.5
2014-Sep-21 15:34N 57°37' W 001°44'1515.2
2014-Sep-21 14:34N 57°22' W 001°47'8 0.8
2014-Sep-21 05:33N 57°16' W 001°53'1212.0
2014-Sep-21 04:33N 57°26' W 001°44'1312.7
2014-Sep-21 03:33N 57°39' W 001°39'1313.4
2014-Sep-21 02:34N 57°52' W 001°37'  

Dump ship's entire track history